sensor_id;sensor_type;location;lat;lon;timestamp;P1;durP1;ratioP1;P2;durP2;ratioP2
61677;SDS011;47575;52.054;4.334;2022-07-23T00:02:26;6.22;;;1.42;;
61677;SDS011;47575;52.054;4.334;2022-07-23T00:04:55;7.45;;;1.65;;
61677;SDS011;47575;52.054;4.334;2022-07-23T00:07:22;4.90;;;1.60;;
61677;SDS011;47575;52.054;4.334;2022-07-23T00:09:49;6.55;;;1.83;;
61677;SDS011;47575;52.054;4.334;2022-07-23T00:12:16;5.28;;;1.70;;
61677;SDS011;47575;52.054;4.334;2022-07-23T00:14:44;4.88;;;1.60;;
61677;SDS011;47575;52.054;4.334;2022-07-23T00:17:11;3.38;;;1.40;;
61677;SDS011;47575;52.054;4.334;2022-07-23T00:19:38;5.15;;;1.80;;
61677;SDS011;47575;52.054;4.334;2022-07-23T00:22:07;6.07;;;1.90;;
61677;SDS011;47575;52.054;4.334;2022-07-23T00:24:34;5.63;;;1.65;;
61677;SDS011;47575;52.054;4.334;2022-07-23T00:27:01;8.20;;;1.95;;
61677;SDS011;47575;52.054;4.334;2022-07-23T00:29:28;6.93;;;1.90;;
61677;SDS011;47575;52.054;4.334;2022-07-23T00:31:56;6.03;;;1.88;;
61677;SDS011;47575;52.054;4.334;2022-07-23T00:34:23;5.85;;;1.88;;
61677;SDS011;47575;52.054;4.334;2022-07-23T00:36:50;7.82;;;1.83;;
61677;SDS011;47575;52.054;4.334;2022-07-23T00:39:20;5.03;;;1.75;;
61677;SDS011;47575;52.054;4.334;2022-07-23T00:41:48;6.03;;;1.75;;
61677;SDS011;47575;52.054;4.334;2022-07-23T00:44:20;4.75;;;2.10;;
61677;SDS011;47575;52.054;4.334;2022-07-23T00:46:49;5.63;;;1.85;;
61677;SDS011;47575;52.054;4.334;2022-07-23T00:49:18;4.90;;;1.90;;
61677;SDS011;47575;52.054;4.334;2022-07-23T00:51:47;4.60;;;2.10;;
61677;SDS011;47575;52.054;4.334;2022-07-23T00:54:15;5.45;;;2.13;;
61677;SDS011;47575;52.054;4.334;2022-07-23T00:56:44;6.43;;;2.22;;
61677;SDS011;47575;52.054;4.334;2022-07-23T00:59:13;5.47;;;1.88;;
61677;SDS011;47575;52.054;4.334;2022-07-23T01:01:41;7.63;;;2.33;;
61677;SDS011;47575;52.054;4.334;2022-07-23T01:04:09;5.78;;;1.88;;
61677;SDS011;47575;52.054;4.334;2022-07-23T01:06:37;6.10;;;2.15;;
61677;SDS011;47575;52.054;4.334;2022-07-23T01:09:05;4.35;;;2.10;;
61677;SDS011;47575;52.054;4.334;2022-07-23T01:11:33;7.00;;;2.15;;
61677;SDS011;47575;52.054;4.334;2022-07-23T01:14:09;12.15;;;2.30;;
61677;SDS011;47575;52.054;4.334;2022-07-23T01:16:38;5.05;;;2.08;;
61677;SDS011;47575;52.054;4.334;2022-07-23T01:19:06;6.43;;;2.10;;
61677;SDS011;47575;52.054;4.334;2022-07-23T01:21:35;6.55;;;1.98;;
61677;SDS011;47575;52.054;4.334;2022-07-23T01:24:05;6.85;;;2.00;;
61677;SDS011;47575;52.054;4.334;2022-07-23T01:26:36;8.25;;;2.30;;
61677;SDS011;47575;52.054;4.334;2022-07-23T01:29:05;8.55;;;2.30;;
61677;SDS011;47575;52.054;4.334;2022-07-23T01:31:33;6.68;;;2.03;;
61677;SDS011;47575;52.054;4.334;2022-07-23T01:34:00;6.38;;;2.30;;
61677;SDS011;47575;52.054;4.334;2022-07-23T01:36:28;10.25;;;2.42;;
61677;SDS011;47575;52.054;4.334;2022-07-23T01:38:55;5.22;;;2.20;;
61677;SDS011;47575;52.054;4.334;2022-07-23T01:41:24;4.77;;;2.00;;
61677;SDS011;47575;52.054;4.334;2022-07-23T01:43:51;5.83;;;2.40;;
61677;SDS011;47575;52.054;4.334;2022-07-23T01:46:18;6.65;;;2.40;;
61677;SDS011;47575;52.054;4.334;2022-07-23T01:48:48;6.93;;;2.33;;
61677;SDS011;47575;52.054;4.334;2022-07-23T01:51:36;7.23;;;2.67;;
61677;SDS011;47575;52.054;4.334;2022-07-23T01:54:23;7.37;;;2.60;;
61677;SDS011;47575;52.054;4.334;2022-07-23T01:56:52;5.93;;;2.40;;
61677;SDS011;47575;52.054;4.334;2022-07-23T01:59:19;8.23;;;2.60;;
61677;SDS011;47575;52.054;4.334;2022-07-23T02:01:46;6.97;;;2.23;;
61677;SDS011;47575;52.054;4.334;2022-07-23T02:04:14;5.27;;;2.30;;
61677;SDS011;47575;52.054;4.334;2022-07-23T02:06:41;6.23;;;2.67;;
61677;SDS011;47575;52.054;4.334;2022-07-23T02:09:09;6.63;;;2.60;;
61677;SDS011;47575;52.054;4.334;2022-07-23T02:11:36;6.60;;;2.73;;
61677;SDS011;47575;52.054;4.334;2022-07-23T02:14:05;7.73;;;2.77;;
61677;SDS011;47575;52.054;4.334;2022-07-23T02:16:32;6.60;;;3.03;;
61677;SDS011;47575;52.054;4.334;2022-07-23T02:19:01;6.67;;;3.00;;
61677;SDS011;47575;52.054;4.334;2022-07-23T02:21:29;8.23;;;3.00;;
61677;SDS011;47575;52.054;4.334;2022-07-23T02:23:56;6.53;;;2.90;;
61677;SDS011;47575;52.054;4.334;2022-07-23T02:26:24;5.67;;;2.73;;
61677;SDS011;47575;52.054;4.334;2022-07-23T02:28:53;5.83;;;3.00;;
61677;SDS011;47575;52.054;4.334;2022-07-23T02:31:22;6.50;;;3.00;;
61677;SDS011;47575;52.054;4.334;2022-07-23T02:33:50;6.67;;;2.70;;
61677;SDS011;47575;52.054;4.334;2022-07-23T02:36:17;10.60;;;3.30;;
61677;SDS011;47575;52.054;4.334;2022-07-23T02:38:44;7.07;;;3.10;;
61677;SDS011;47575;52.054;4.334;2022-07-23T02:41:12;9.47;;;3.20;;
61677;SDS011;47575;52.054;4.334;2022-07-23T02:43:40;7.90;;;3.37;;
61677;SDS011;47575;52.054;4.334;2022-07-23T02:46:07;9.63;;;3.50;;
61677;SDS011;47575;52.054;4.334;2022-07-23T02:48:36;6.53;;;2.80;;
61677;SDS011;47575;52.054;4.334;2022-07-23T02:51:03;7.87;;;2.93;;
61677;SDS011;47575;52.054;4.334;2022-07-23T02:53:37;8.30;;;3.00;;
61677;SDS011;47575;52.054;4.334;2022-07-23T02:56:04;5.77;;;3.17;;
61677;SDS011;47575;52.054;4.334;2022-07-23T02:58:31;8.20;;;3.10;;
61677;SDS011;47575;52.054;4.334;2022-07-23T03:01:00;5.70;;;3.00;;
61677;SDS011;47575;52.054;4.334;2022-07-23T03:03:27;6.03;;;2.80;;
61677;SDS011;47575;52.054;4.334;2022-07-23T03:05:56;9.17;;;2.60;;
61677;SDS011;47575;52.054;4.334;2022-07-23T03:08:24;6.60;;;2.60;;
61677;SDS011;47575;52.054;4.334;2022-07-23T03:10:52;10.25;;;3.00;;
61677;SDS011;47575;52.054;4.334;2022-07-23T03:13:19;6.43;;;3.07;;
61677;SDS011;47575;52.054;4.334;2022-07-23T03:15:46;8.70;;;3.40;;
61677;SDS011;47575;52.054;4.334;2022-07-23T03:18:14;8.13;;;3.23;;
61677;SDS011;47575;52.054;4.334;2022-07-23T03:20:41;6.60;;;3.50;;
61677;SDS011;47575;52.054;4.334;2022-07-23T03:23:11;7.03;;;3.00;;
61677;SDS011;47575;52.054;4.334;2022-07-23T03:25:38;6.30;;;3.07;;
61677;SDS011;47575;52.054;4.334;2022-07-23T03:28:05;7.20;;;3.03;;
61677;SDS011;47575;52.054;4.334;2022-07-23T03:30:33;7.50;;;2.87;;
61677;SDS011;47575;52.054;4.334;2022-07-23T03:33:00;6.13;;;2.97;;
61677;SDS011;47575;52.054;4.334;2022-07-23T03:35:27;8.70;;;3.20;;
61677;SDS011;47575;52.054;4.334;2022-07-23T03:38:10;6.90;;;3.30;;
61677;SDS011;47575;52.054;4.334;2022-07-23T03:40:37;7.03;;;3.17;;
61677;SDS011;47575;52.054;4.334;2022-07-23T03:43:05;7.33;;;2.90;;
61677;SDS011;47575;52.054;4.334;2022-07-23T03:45:32;9.53;;;2.90;;
61677;SDS011;47575;52.054;4.334;2022-07-23T03:47:59;6.00;;;3.03;;
61677;SDS011;47575;52.054;4.334;2022-07-23T03:50:28;7.17;;;3.50;;
61677;SDS011;47575;52.054;4.334;2022-07-23T03:52:55;7.37;;;3.10;;
61677;SDS011;47575;52.054;4.334;2022-07-23T03:55:24;8.03;;;3.63;;
61677;SDS011;47575;52.054;4.334;2022-07-23T03:57:51;7.73;;;3.00;;
61677;SDS011;47575;52.054;4.334;2022-07-23T04:00:19;9.77;;;3.17;;
61677;SDS011;47575;52.054;4.334;2022-07-23T04:02:49;7.50;;;3.03;;
61677;SDS011;47575;52.054;4.334;2022-07-23T04:05:17;9.20;;;3.43;;
61677;SDS011;47575;52.054;4.334;2022-07-23T04:07:47;11.43;;;2.97;;
61677;SDS011;47575;52.054;4.334;2022-07-23T04:10:14;5.47;;;3.17;;
61677;SDS011;47575;52.054;4.334;2022-07-23T04:12:43;5.60;;;2.57;;
61677;SDS011;47575;52.054;4.334;2022-07-23T04:15:10;7.73;;;3.00;;
61677;SDS011;47575;52.054;4.334;2022-07-23T04:17:38;8.23;;;2.90;;
61677;SDS011;47575;52.054;4.334;2022-07-23T04:20:06;6.20;;;2.87;;
61677;SDS011;47575;52.054;4.334;2022-07-23T04:22:40;6.47;;;3.07;;
61677;SDS011;47575;52.054;4.334;2022-07-23T04:25:08;8.90;;;2.70;;
61677;SDS011;47575;52.054;4.334;2022-07-23T04:27:36;7.77;;;2.80;;
61677;SDS011;47575;52.054;4.334;2022-07-23T04:30:07;5.53;;;3.33;;
61677;SDS011;47575;52.054;4.334;2022-07-23T04:32:35;6.00;;;3.07;;
61677;SDS011;47575;52.054;4.334;2022-07-23T04:35:08;8.50;;;3.50;;
61677;SDS011;47575;52.054;4.334;2022-07-23T04:37:35;13.63;;;3.60;;
61677;SDS011;47575;52.054;4.334;2022-07-23T04:40:03;16.00;;;3.70;;
61677;SDS011;47575;52.054;4.334;2022-07-23T04:42:31;5.80;;;3.20;;
61677;SDS011;47575;52.054;4.334;2022-07-23T04:44:59;7.63;;;3.40;;
61677;SDS011;47575;52.054;4.334;2022-07-23T04:47:27;9.97;;;4.17;;
61677;SDS011;47575;52.054;4.334;2022-07-23T04:49:56;8.43;;;3.63;;
61677;SDS011;47575;52.054;4.334;2022-07-23T04:52:24;7.63;;;3.70;;
61677;SDS011;47575;52.054;4.334;2022-07-23T04:54:52;8.53;;;3.67;;
61677;SDS011;47575;52.054;4.334;2022-07-23T04:57:24;6.10;;;3.50;;
61677;SDS011;47575;52.054;4.334;2022-07-23T04:59:51;7.20;;;3.60;;
61677;SDS011;47575;52.054;4.334;2022-07-23T05:02:20;6.90;;;3.60;;
61677;SDS011;47575;52.054;4.334;2022-07-23T05:04:49;9.07;;;4.00;;
61677;SDS011;47575;52.054;4.334;2022-07-23T05:07:16;8.23;;;3.75;;
61677;SDS011;47575;52.054;4.334;2022-07-23T05:09:44;5.93;;;3.17;;
61677;SDS011;47575;52.054;4.334;2022-07-23T05:12:11;7.53;;;3.40;;
61677;SDS011;47575;52.054;4.334;2022-07-23T05:14:41;7.82;;;3.40;;
61677;SDS011;47575;52.054;4.334;2022-07-23T05:17:09;7.05;;;3.25;;
61677;SDS011;47575;52.054;4.334;2022-07-23T05:19:36;6.28;;;3.33;;
61677;SDS011;47575;52.054;4.334;2022-07-23T05:22:06;7.00;;;3.40;;
61677;SDS011;47575;52.054;4.334;2022-07-23T05:24:33;8.93;;;3.30;;
61677;SDS011;47575;52.054;4.334;2022-07-23T05:27:02;6.32;;;2.90;;
61677;SDS011;47575;52.054;4.334;2022-07-23T05:29:30;8.18;;;3.20;;
61677;SDS011;47575;52.054;4.334;2022-07-23T05:31:57;7.28;;;2.75;;
61677;SDS011;47575;52.054;4.334;2022-07-23T05:34:27;7.80;;;3.03;;
61677;SDS011;47575;52.054;4.334;2022-07-23T05:36:56;5.63;;;2.65;;
61677;SDS011;47575;52.054;4.334;2022-07-23T05:39:25;8.85;;;2.80;;
61677;SDS011;47575;52.054;4.334;2022-07-23T05:41:56;6.38;;;2.50;;
61677;SDS011;47575;52.054;4.334;2022-07-23T05:44:23;7.20;;;2.60;;
61677;SDS011;47575;52.054;4.334;2022-07-23T05:46:53;5.30;;;2.08;;
61677;SDS011;47575;52.054;4.334;2022-07-23T05:49:23;6.72;;;2.20;;
61677;SDS011;47575;52.054;4.334;2022-07-23T05:52:18;8.50;;;2.10;;
61677;SDS011;47575;52.054;4.334;2022-07-23T05:55:16;8.05;;;2.10;;
61677;SDS011;47575;52.054;4.334;2022-07-23T05:57:44;5.47;;;2.38;;
61677;SDS011;47575;52.054;4.334;2022-07-23T06:00:11;6.72;;;2.65;;
61677;SDS011;47575;52.054;4.334;2022-07-23T06:05:13;7.65;;;2.35;;
61677;SDS011;47575;52.054;4.334;2022-07-23T06:07:44;6.72;;;2.00;;
61677;SDS011;47575;52.054;4.334;2022-07-23T06:10:13;6.18;;;1.80;;
61677;SDS011;47575;52.054;4.334;2022-07-23T06:12:46;5.22;;;1.70;;
61677;SDS011;47575;52.054;4.334;2022-07-23T06:15:15;7.03;;;1.80;;
61677;SDS011;47575;52.054;4.334;2022-07-23T06:17:43;4.50;;;1.63;;
61677;SDS011;47575;52.054;4.334;2022-07-23T06:20:10;3.55;;;1.30;;
61677;SDS011;47575;52.054;4.334;2022-07-23T06:22:39;6.13;;;1.60;;
61677;SDS011;47575;52.054;4.334;2022-07-23T06:25:07;4.82;;;1.45;;
61677;SDS011;47575;52.054;4.334;2022-07-23T06:27:35;5.50;;;1.70;;
61677;SDS011;47575;52.054;4.334;2022-07-23T06:30:04;4.03;;;1.50;;
61677;SDS011;47575;52.054;4.334;2022-07-23T06:32:34;7.43;;;1.70;;
61677;SDS011;47575;52.054;4.334;2022-07-23T06:35:01;4.50;;;1.50;;
61677;SDS011;47575;52.054;4.334;2022-07-23T06:37:29;6.18;;;1.40;;
61677;SDS011;47575;52.054;4.334;2022-07-23T06:39:57;5.63;;;1.40;;
61677;SDS011;47575;52.054;4.334;2022-07-23T06:42:24;4.47;;;1.30;;
61677;SDS011;47575;52.054;4.334;2022-07-23T06:44:57;7.25;;;1.50;;
61677;SDS011;47575;52.054;4.334;2022-07-23T06:47:25;3.90;;;1.30;;
61677;SDS011;47575;52.054;4.334;2022-07-23T06:49:53;4.88;;;1.30;;
61677;SDS011;47575;52.054;4.334;2022-07-23T06:52:21;6.15;;;1.55;;
61677;SDS011;47575;52.054;4.334;2022-07-23T06:54:49;5.35;;;1.40;;
61677;SDS011;47575;52.054;4.334;2022-07-23T06:57:16;4.85;;;1.25;;
61677;SDS011;47575;52.054;4.334;2022-07-23T06:59:43;3.05;;;0.98;;
61677;SDS011;47575;52.054;4.334;2022-07-23T07:02:11;5.50;;;1.70;;
61677;SDS011;47575;52.054;4.334;2022-07-23T07:04:39;7.10;;;1.30;;
61677;SDS011;47575;52.054;4.334;2022-07-23T07:07:07;5.53;;;1.52;;
61677;SDS011;47575;52.054;4.334;2022-07-23T07:09:34;4.53;;;1.52;;
61677;SDS011;47575;52.054;4.334;2022-07-23T07:12:01;7.05;;;1.38;;
61677;SDS011;47575;52.054;4.334;2022-07-23T07:14:28;6.72;;;1.50;;
61677;SDS011;47575;52.054;4.334;2022-07-23T07:16:56;3.88;;;1.42;;
61677;SDS011;47575;52.054;4.334;2022-07-23T07:19:23;3.88;;;1.50;;
61677;SDS011;47575;52.054;4.334;2022-07-23T07:21:52;5.53;;;1.30;;
61677;SDS011;47575;52.054;4.334;2022-07-23T07:24:19;5.07;;;1.35;;
61677;SDS011;47575;52.054;4.334;2022-07-23T07:26:46;5.43;;;1.10;;
61677;SDS011;47575;52.054;4.334;2022-07-23T07:29:13;4.07;;;1.10;;
61677;SDS011;47575;52.054;4.334;2022-07-23T07:31:41;4.72;;;1.10;;
61677;SDS011;47575;52.054;4.334;2022-07-23T07:34:08;3.80;;;1.10;;
61677;SDS011;47575;52.054;4.334;2022-07-23T07:36:35;4.75;;;1.20;;
61677;SDS011;47575;52.054;4.334;2022-07-23T07:39:04;4.40;;;1.10;;
61677;SDS011;47575;52.054;4.334;2022-07-23T07:41:32;5.20;;;1.27;;
61677;SDS011;47575;52.054;4.334;2022-07-23T07:43:59;6.25;;;1.58;;
61677;SDS011;47575;52.054;4.334;2022-07-23T07:46:26;3.95;;;1.20;;
61677;SDS011;47575;52.054;4.334;2022-07-23T07:48:54;5.03;;;1.27;;
61677;SDS011;47575;52.054;4.334;2022-07-23T07:51:21;3.25;;;1.08;;
61677;SDS011;47575;52.054;4.334;2022-07-23T07:53:48;3.85;;;1.33;;
61677;SDS011;47575;52.054;4.334;2022-07-23T07:56:17;5.60;;;1.35;;
61677;SDS011;47575;52.054;4.334;2022-07-23T07:58:44;2.90;;;1.10;;
61677;SDS011;47575;52.054;4.334;2022-07-23T08:01:11;3.17;;;1.08;;
61677;SDS011;47575;52.054;4.334;2022-07-23T08:03:39;3.50;;;1.20;;
61677;SDS011;47575;52.054;4.334;2022-07-23T08:06:06;4.55;;;1.30;;
61677;SDS011;47575;52.054;4.334;2022-07-23T08:08:33;4.45;;;1.00;;
61677;SDS011;47575;52.054;4.334;2022-07-23T08:11:01;4.63;;;1.10;;
61677;SDS011;47575;52.054;4.334;2022-07-23T08:13:29;3.92;;;1.05;;
61677;SDS011;47575;52.054;4.334;2022-07-23T08:15:57;5.95;;;1.10;;
61677;SDS011;47575;52.054;4.334;2022-07-23T08:18:24;3.15;;;0.95;;
61677;SDS011;47575;52.054;4.334;2022-07-23T08:20:51;5.60;;;1.30;;
61677;SDS011;47575;52.054;4.334;2022-07-23T08:23:18;4.05;;;1.00;;
61677;SDS011;47575;52.054;4.334;2022-07-23T08:25:46;4.97;;;1.17;;
61677;SDS011;47575;52.054;4.334;2022-07-23T08:28:14;5.13;;;1.10;;
61677;SDS011;47575;52.054;4.334;2022-07-23T08:30:43;4.82;;;1.10;;
61677;SDS011;47575;52.054;4.334;2022-07-23T08:33:12;3.72;;;1.08;;
61677;SDS011;47575;52.054;4.334;2022-07-23T08:35:40;5.55;;;1.20;;
61677;SDS011;47575;52.054;4.334;2022-07-23T08:38:10;4.80;;;1.23;;
61677;SDS011;47575;52.054;4.334;2022-07-23T08:40:38;4.63;;;1.25;;
61677;SDS011;47575;52.054;4.334;2022-07-23T08:43:08;6.20;;;1.30;;
61677;SDS011;47575;52.054;4.334;2022-07-23T08:45:37;3.45;;;1.13;;
61677;SDS011;47575;52.054;4.334;2022-07-23T08:48:08;3.33;;;1.00;;
61677;SDS011;47575;52.054;4.334;2022-07-23T08:50:37;4.83;;;1.27;;
61677;SDS011;47575;52.054;4.334;2022-07-23T08:53:09;3.90;;;1.20;;
61677;SDS011;47575;52.054;4.334;2022-07-23T08:55:37;4.07;;;1.05;;
61677;SDS011;47575;52.054;4.334;2022-07-23T08:58:04;3.90;;;1.33;;
61677;SDS011;47575;52.054;4.334;2022-07-23T09:00:32;4.57;;;1.20;;
61677;SDS011;47575;52.054;4.334;2022-07-23T09:02:59;3.70;;;1.00;;
61677;SDS011;47575;52.054;4.334;2022-07-23T09:05:28;4.30;;;1.20;;
61677;SDS011;47575;52.054;4.334;2022-07-23T09:08:09;5.18;;;1.30;;
61677;SDS011;47575;52.054;4.334;2022-07-23T09:10:45;4.35;;;1.13;;
61677;SDS011;47575;52.054;4.334;2022-07-23T09:13:27;4.97;;;1.40;;
61677;SDS011;47575;52.054;4.334;2022-07-23T09:15:57;4.15;;;1.17;;
61677;SDS011;47575;52.054;4.334;2022-07-23T09:18:36;4.47;;;1.10;;
61677;SDS011;47575;52.054;4.334;2022-07-23T09:21:07;3.70;;;1.00;;
61677;SDS011;47575;52.054;4.334;2022-07-23T09:23:36;3.75;;;1.30;;
61677;SDS011;47575;52.054;4.334;2022-07-23T09:26:16;4.80;;;1.10;;
61677;SDS011;47575;52.054;4.334;2022-07-23T09:28:52;4.57;;;1.20;;
61677;SDS011;47575;52.054;4.334;2022-07-23T09:31:23;4.95;;;1.50;;
61677;SDS011;47575;52.054;4.334;2022-07-23T09:33:51;4.38;;;1.25;;
61677;SDS011;47575;52.054;4.334;2022-07-23T09:36:34;3.85;;;1.38;;
61677;SDS011;47575;52.054;4.334;2022-07-23T09:39:01;4.30;;;1.20;;
61677;SDS011;47575;52.054;4.334;2022-07-23T09:41:33;2.78;;;1.13;;
61677;SDS011;47575;52.054;4.334;2022-07-23T09:44:06;3.25;;;1.20;;
61677;SDS011;47575;52.054;4.334;2022-07-23T09:46:38;4.90;;;1.40;;
61677;SDS011;47575;52.054;4.334;2022-07-23T09:49:10;4.30;;;1.40;;
61677;SDS011;47575;52.054;4.334;2022-07-23T09:51:47;6.20;;;1.52;;
61677;SDS011;47575;52.054;4.334;2022-07-23T09:54:21;4.18;;;1.40;;
61677;SDS011;47575;52.054;4.334;2022-07-23T09:56:51;3.17;;;1.30;;
61677;SDS011;47575;52.054;4.334;2022-07-23T09:59:20;4.97;;;1.27;;
61677;SDS011;47575;52.054;4.334;2022-07-23T10:01:51;3.97;;;1.38;;
61677;SDS011;47575;52.054;4.334;2022-07-23T10:04:20;5.50;;;1.90;;
61677;SDS011;47575;52.054;4.334;2022-07-23T10:07:12;4.53;;;1.50;;
61677;SDS011;47575;52.054;4.334;2022-07-23T10:09:59;6.65;;;1.40;;
61677;SDS011;47575;52.054;4.334;2022-07-23T10:12:43;4.57;;;1.48;;
61677;SDS011;47575;52.054;4.334;2022-07-23T10:15:19;4.68;;;1.50;;
61677;SDS011;47575;52.054;4.334;2022-07-23T10:17:47;3.60;;;1.48;;
61677;SDS011;47575;52.054;4.334;2022-07-23T10:20:15;5.07;;;1.38;;
61677;SDS011;47575;52.054;4.334;2022-07-23T10:22:44;4.70;;;1.40;;
61677;SDS011;47575;52.054;4.334;2022-07-23T10:25:24;5.10;;;1.50;;
61677;SDS011;47575;52.054;4.334;2022-07-23T10:28:12;4.20;;;1.25;;
61677;SDS011;47575;52.054;4.334;2022-07-23T10:31:00;5.28;;;1.88;;
61677;SDS011;47575;52.054;4.334;2022-07-23T10:33:32;5.95;;;1.90;;
61677;SDS011;47575;52.054;4.334;2022-07-23T10:36:11;3.42;;;1.38;;
61677;SDS011;47575;52.054;4.334;2022-07-23T10:38:53;5.35;;;1.70;;
61677;SDS011;47575;52.054;4.334;2022-07-23T10:41:32;5.22;;;1.80;;
61677;SDS011;47575;52.054;4.334;2022-07-23T10:44:05;7.10;;;1.48;;
61677;SDS011;47575;52.054;4.334;2022-07-23T10:46:33;4.00;;;1.83;;
61677;SDS011;47575;52.054;4.334;2022-07-23T10:49:20;5.18;;;1.77;;
61677;SDS011;47575;52.054;4.334;2022-07-23T10:54:50;4.75;;;1.55;;
61677;SDS011;47575;52.054;4.334;2022-07-23T10:57:19;4.85;;;1.52;;
61677;SDS011;47575;52.054;4.334;2022-07-23T11:02:42;10.05;;;1.92;;
61677;SDS011;47575;52.054;4.334;2022-07-23T11:05:11;5.07;;;1.52;;
61677;SDS011;47575;52.054;4.334;2022-07-23T11:10:42;7.38;;;1.65;;
61677;SDS011;47575;52.054;4.334;2022-07-23T11:16:12;5.45;;;1.70;;
61677;SDS011;47575;52.054;4.334;2022-07-23T11:21:50;3.85;;;1.60;;
61677;SDS011;47575;52.054;4.334;2022-07-23T11:24:18;4.72;;;1.50;;
61677;SDS011;47575;52.054;4.334;2022-07-23T11:26:49;6.05;;;1.90;;
61677;SDS011;47575;52.054;4.334;2022-07-23T11:35:24;6.25;;;1.60;;
61677;SDS011;47575;52.054;4.334;2022-07-23T11:37:53;8.88;;;1.92;;
61677;SDS011;47575;52.054;4.334;2022-07-23T11:40:29;5.32;;;1.80;;
61677;SDS011;47575;52.054;4.334;2022-07-23T11:42:59;4.90;;;1.55;;
61677;SDS011;47575;52.054;4.334;2022-07-23T11:45:30;4.63;;;1.58;;
61677;SDS011;47575;52.054;4.334;2022-07-23T11:47:59;7.20;;;1.70;;
61677;SDS011;47575;52.054;4.334;2022-07-23T11:50:26;8.07;;;1.70;;
61677;SDS011;47575;52.054;4.334;2022-07-23T11:52:53;4.97;;;1.67;;
61677;SDS011;47575;52.054;4.334;2022-07-23T11:55:21;7.50;;;1.85;;
61677;SDS011;47575;52.054;4.334;2022-07-23T11:57:50;5.50;;;1.88;;
61677;SDS011;47575;52.054;4.334;2022-07-23T12:00:20;4.18;;;1.83;;
61677;SDS011;47575;52.054;4.334;2022-07-23T12:02:50;8.80;;;1.90;;
61677;SDS011;47575;52.054;4.334;2022-07-23T12:05:19;5.68;;;2.17;;
61677;SDS011;47575;52.054;4.334;2022-07-23T12:07:48;5.78;;;2.08;;
61677;SDS011;47575;52.054;4.334;2022-07-23T12:10:17;5.75;;;1.80;;
61677;SDS011;47575;52.054;4.334;2022-07-23T12:12:46;5.40;;;1.67;;
61677;SDS011;47575;52.054;4.334;2022-07-23T12:15:15;7.43;;;1.58;;
61677;SDS011;47575;52.054;4.334;2022-07-23T12:17:46;5.63;;;1.70;;
61677;SDS011;47575;52.054;4.334;2022-07-23T12:20:15;6.55;;;1.67;;
61677;SDS011;47575;52.054;4.334;2022-07-23T12:22:44;7.38;;;1.67;;
61677;SDS011;47575;52.054;4.334;2022-07-23T12:25:13;4.40;;;1.70;;
61677;SDS011;47575;52.054;4.334;2022-07-23T12:27:42;7.20;;;2.05;;
61677;SDS011;47575;52.054;4.334;2022-07-23T12:30:18;13.93;;;2.78;;
61677;SDS011;47575;52.054;4.334;2022-07-23T12:32:50;6.68;;;2.92;;
61677;SDS011;47575;52.054;4.334;2022-07-23T12:35:19;6.07;;;2.35;;
61677;SDS011;47575;52.054;4.334;2022-07-23T12:37:48;7.07;;;1.63;;
61677;SDS011;47575;52.054;4.334;2022-07-23T12:40:18;6.13;;;2.00;;
61677;SDS011;47575;52.054;4.334;2022-07-23T12:42:51;5.20;;;1.75;;
61677;SDS011;47575;52.054;4.334;2022-07-23T12:45:21;6.68;;;1.95;;
61677;SDS011;47575;52.054;4.334;2022-07-23T12:47:57;5.50;;;1.63;;
61677;SDS011;47575;52.054;4.334;2022-07-23T12:50:40;4.47;;;1.58;;
61677;SDS011;47575;52.054;4.334;2022-07-23T12:53:10;5.68;;;1.77;;
61677;SDS011;47575;52.054;4.334;2022-07-23T12:55:41;5.30;;;1.80;;
61677;SDS011;47575;52.054;4.334;2022-07-23T12:58:10;8.93;;;1.92;;
61677;SDS011;47575;52.054;4.334;2022-07-23T13:00:52;5.18;;;1.65;;
61677;SDS011;47575;52.054;4.334;2022-07-23T13:03:26;8.52;;;1.90;;
61677;SDS011;47575;52.054;4.334;2022-07-23T13:05:55;5.00;;;1.95;;
61677;SDS011;47575;52.054;4.334;2022-07-23T13:08:24;6.45;;;1.90;;
61677;SDS011;47575;52.054;4.334;2022-07-23T13:10:52;5.82;;;2.28;;
61677;SDS011;47575;52.054;4.334;2022-07-23T13:13:21;6.15;;;1.90;;
61677;SDS011;47575;52.054;4.334;2022-07-23T13:15:50;6.35;;;2.08;;
61677;SDS011;47575;52.054;4.334;2022-07-23T13:18:18;6.57;;;2.00;;
61677;SDS011;47575;52.054;4.334;2022-07-23T13:20:47;8.88;;;1.98;;
61677;SDS011;47575;52.054;4.334;2022-07-23T13:23:16;4.82;;;1.70;;
61677;SDS011;47575;52.054;4.334;2022-07-23T13:25:44;4.85;;;1.70;;
61677;SDS011;47575;52.054;4.334;2022-07-23T13:28:11;5.45;;;1.85;;
61677;SDS011;47575;52.054;4.334;2022-07-23T13:30:39;7.10;;;1.90;;
61677;SDS011;47575;52.054;4.334;2022-07-23T13:33:07;8.50;;;2.55;;
61677;SDS011;47575;52.054;4.334;2022-07-23T13:35:35;5.07;;;1.88;;
61677;SDS011;47575;52.054;4.334;2022-07-23T13:38:05;4.25;;;1.60;;
61677;SDS011;47575;52.054;4.334;2022-07-23T13:40:34;6.35;;;2.22;;
61677;SDS011;47575;52.054;4.334;2022-07-23T13:43:04;9.55;;;2.63;;
61677;SDS011;47575;52.054;4.334;2022-07-23T13:45:32;10.13;;;2.50;;
61677;SDS011;47575;52.054;4.334;2022-07-23T13:48:00;4.68;;;1.80;;
61677;SDS011;47575;52.054;4.334;2022-07-23T13:50:28;5.95;;;2.35;;
61677;SDS011;47575;52.054;4.334;2022-07-23T13:52:55;5.40;;;2.40;;
61677;SDS011;47575;52.054;4.334;2022-07-23T13:55:24;7.03;;;2.67;;
61677;SDS011;47575;52.054;4.334;2022-07-23T13:57:51;7.32;;;2.40;;
61677;SDS011;47575;52.054;4.334;2022-07-23T14:00:18;8.15;;;2.17;;
61677;SDS011;47575;52.054;4.334;2022-07-23T14:02:46;9.95;;;2.63;;
61677;SDS011;47575;52.054;4.334;2022-07-23T14:05:13;6.85;;;2.38;;
61677;SDS011;47575;52.054;4.334;2022-07-23T14:07:40;7.65;;;2.15;;
61677;SDS011;47575;52.054;4.334;2022-07-23T14:10:10;4.57;;;2.20;;
61677;SDS011;47575;52.054;4.334;2022-07-23T14:12:38;7.72;;;2.22;;
61677;SDS011;47575;52.054;4.334;2022-07-23T14:15:06;5.10;;;2.08;;
61677;SDS011;47575;52.054;4.334;2022-07-23T14:17:36;5.63;;;2.38;;
61677;SDS011;47575;52.054;4.334;2022-07-23T14:20:06;8.27;;;2.60;;
61677;SDS011;47575;52.054;4.334;2022-07-23T14:22:34;5.32;;;2.40;;
61677;SDS011;47575;52.054;4.334;2022-07-23T14:25:02;4.95;;;2.13;;
61677;SDS011;47575;52.054;4.334;2022-07-23T14:27:31;6.00;;;2.00;;
61677;SDS011;47575;52.054;4.334;2022-07-23T14:30:00;5.85;;;2.30;;
61677;SDS011;47575;52.054;4.334;2022-07-23T14:32:27;6.05;;;2.50;;
61677;SDS011;47575;52.054;4.334;2022-07-23T14:34:55;6.97;;;2.20;;
61677;SDS011;47575;52.054;4.334;2022-07-23T14:37:22;6.15;;;2.50;;
61677;SDS011;47575;52.054;4.334;2022-07-23T14:39:50;5.85;;;2.20;;
61677;SDS011;47575;52.054;4.334;2022-07-23T14:42:18;5.30;;;2.17;;
61677;SDS011;47575;52.054;4.334;2022-07-23T14:44:46;5.60;;;2.40;;
61677;SDS011;47575;52.054;4.334;2022-07-23T14:47:14;6.43;;;2.10;;
61677;SDS011;47575;52.054;4.334;2022-07-23T14:49:42;6.45;;;2.00;;
61677;SDS011;47575;52.054;4.334;2022-07-23T14:52:09;5.97;;;2.28;;
61677;SDS011;47575;52.054;4.334;2022-07-23T14:54:36;5.50;;;2.85;;
61677;SDS011;47575;52.054;4.334;2022-07-23T14:57:04;5.93;;;2.25;;
61677;SDS011;47575;52.054;4.334;2022-07-23T14:59:33;5.82;;;2.20;;
61677;SDS011;47575;52.054;4.334;2022-07-23T15:02:01;5.70;;;2.60;;
61677;SDS011;47575;52.054;4.334;2022-07-23T15:04:29;6.95;;;2.50;;
61677;SDS011;47575;52.054;4.334;2022-07-23T15:06:56;5.90;;;2.03;;
61677;SDS011;47575;52.054;4.334;2022-07-23T15:09:24;6.75;;;2.40;;
61677;SDS011;47575;52.054;4.334;2022-07-23T15:11:51;5.05;;;2.20;;
61677;SDS011;47575;52.054;4.334;2022-07-23T15:14:18;5.65;;;2.17;;
61677;SDS011;47575;52.054;4.334;2022-07-23T15:16:45;5.03;;;2.13;;
61677;SDS011;47575;52.054;4.334;2022-07-23T15:19:13;6.68;;;2.40;;
61677;SDS011;47575;52.054;4.334;2022-07-23T15:21:41;8.45;;;3.03;;
61677;SDS011;47575;52.054;4.334;2022-07-23T15:24:08;6.03;;;2.53;;
61677;SDS011;47575;52.054;4.334;2022-07-23T15:26:36;5.60;;;2.10;;